Time;durP1;ratioP1;P1;durP2;ratioP2;P2;SDS_P1;SDS_P2;PMS_P1;PMS_P2;Temp;Humidity;BMP_temperature;BMP_pressure;BME280_temperature;BME280_humidity;BME280_pressure;Samples;Min_cycle;Max_cycle;Signal;HPM_P1;HPM_P2
2021/10/27 08:55:16;;;;;;;4.50;2.70;;;15.00;99.90;;;;;;4907239;29;20240;-72
2021/10/27 08:57:45;;;;;;;5.30;2.97;;;14.70;99.90;;;;;;4916166;29;20249;-71
2021/10/27 09:00:15;;;;;;;7.17;2.93;;;14.60;99.90;;;;;;4917292;29;20257;-73
2021/10/27 09:03:12;;;;;;;7.03;2.90;;;14.50;99.90;;;;;;4917245;29;20218;-75
2021/10/27 09:05:51;;;;;;;5.50;2.60;;;14.50;99.90;;;;;;4913148;29;20574;-74
2021/10/27 09:08:38;;;;;;;5.27;2.57;;;14.70;99.90;;;;;;4916197;29;20217;-73
2021/10/27 09:34:15;;;;;;;5.73;2.17;;;15.00;99.90;;;;;;4916860;29;20220;-73
2021/10/27 09:42:46;;;;;;;2.93;1.90;;;15.00;99.90;;;;;;4894422;29;20340;-74
2021/10/27 10:05:08;;;;;;;4.83;1.43;;;15.50;99.90;;;;;;4897511;29;20333;-72
2021/10/27 10:07:36;;;;;;;4.50;1.80;;;15.60;99.90;;;;;;4897007;29;20214;-72
2021/10/27 10:10:05;;;;;;;6.57;1.83;;;15.60;99.90;;;;;;4896737;29;20238;-73
2021/10/27 10:12:36;;;;;;;3.33;1.57;;;15.70;99.90;;;;;;4897666;29;20214;-73
2021/10/27 10:15:03;;;;;;;3.03;1.40;;;15.70;99.90;;;;;;4915905;29;20213;-73
2021/10/27 10:17:33;;;;;;;3.17;1.53;;;15.90;99.90;;;;;;4915892;29;20705;-72
2021/10/27 10:20:01;;;;;;;2.10;1.43;;;16.10;99.90;;;;;;4915549;29;20276;-75
2021/10/27 10:22:33;;;;;;;3.83;1.50;;;16.20;99.90;;;;;;4915632;29;20611;-75
2021/10/27 10:25:34;;;;;;;2.70;1.30;;;16.20;99.90;;;;;;4915676;29;20216;-74
2021/10/27 10:28:18;;;;;;;3.63;1.67;;;16.10;99.90;;;;;;4915836;29;20304;-75
2021/10/27 10:30:50;;;;;;;5.73;1.30;;;16.20;99.90;;;;;;4915968;29;20229;-75
2021/10/27 10:33:19;;;;;;;3.27;1.50;;;16.10;99.90;;;;;;4916061;29;20301;-75
2021/10/27 10:35:58;;;;;;;1.40;1.10;;;16.30;99.90;;;;;;4916188;29;20244;-75
2021/10/27 11:23:44;;;;;;;4.03;1.13;;;16.70;99.90;;;;;;4918701;29;20209;-75
2021/10/27 11:37:39;;;;;;;3.10;0.97;;;16.90;99.90;;;;;;4918802;29;20237;-72
2021/10/27 11:40:21;;;;;;;2.33;0.50;;;16.90;99.90;;;;;;4918422;29;20289;-75
2021/10/27 11:42:50;;;;;;;2.43;0.57;;;16.90;99.90;;;;;;4918690;29;20591;-72
2021/10/27 11:45:26;;;;;;;1.40;0.60;;;17.00;99.90;;;;;;4918660;29;20239;-73
2021/10/27 11:47:57;;;;;;;4.10;0.80;;;17.10;99.90;;;;;;4918545;29;20216;-75
2021/10/27 11:50:32;;;;;;;1.70;0.50;;;17.10;99.90;;;;;;4918342;29;20702;-75
2021/10/27 11:53:00;;;;;;;1.73;0.70;;;17.10;99.90;;;;;;4918596;29;20219;-75
2021/10/27 11:55:31;;;;;;;3.43;0.70;;;17.10;99.90;;;;;;4918399;29;20212;-75
2021/10/27 11:57:59;;;;;;;0.90;0.70;;;17.10;99.90;;;;;;4918355;29;20237;-75
2021/10/27 12:00:30;;;;;;;0.80;0.50;;;17.00;99.90;;;;;;4918367;29;20237;-75
2021/10/27 12:03:01;;;;;;;2.03;0.70;;;17.10;99.90;;;;;;4914766;29;20245;-74
2021/10/27 12:05:36;;;;;;;0.80;0.60;;;17.10;99.90;;;;;;4917100;29;20304;-75
2021/10/27 12:13:55;;;;;;;1.63;0.80;;;17.40;99.90;;;;;;4896160;29;20695;-75
2021/10/27 12:19:18;;;;;;;0.57;0.50;;;17.30;99.90;;;;;;4916615;29;20670;-75
2021/10/27 12:21:52;;;;;;;1.77;0.60;;;17.20;99.90;;;;;;4916477;29;20255;-73
2021/10/27 12:24:22;;;;;;;1.67;0.60;;;17.20;99.90;;;;;;4916859;29;20208;-75
2021/10/27 12:26:56;;;;;;;2.03;0.63;;;17.20;99.90;;;;;;4916575;29;20221;-75
2021/10/27 12:29:27;;;;;;;2.00;0.67;;;17.20;99.90;;;;;;4916294;29;20299;-73
2021/10/27 12:32:09;;;;;;;1.10;0.70;;;17.20;99.90;;;;;;4915955;29;20214;-74
2021/10/27 12:34:45;;;;;;;1.77;0.70;;;17.20;99.90;;;;;;4916211;29;20454;-73
2021/10/27 12:37:31;;;;;;;1.17;0.70;;;17.20;99.90;;;;;;4916178;29;20233;-75
2021/10/27 12:40:14;;;;;;;1.87;0.60;;;17.20;99.90;;;;;;4916034;29;20593;-74
2021/10/27 12:42:42;;;;;;;2.00;0.70;;;17.10;99.90;;;;;;4916117;29;20244;-74
2021/10/27 12:45:09;;;;;;;1.00;0.70;;;17.10;99.90;;;;;;4916215;29;20241;-73
2021/10/27 12:47:39;;;;;;;2.17;1.07;;;17.10;99.90;;;;;;4915880;29;20206;-74
2021/10/27 12:50:09;;;;;;;1.70;0.90;;;17.20;99.90;;;;;;4915910;29;20226;-74
2021/10/27 12:52:41;;;;;;;1.70;0.83;;;17.20;99.90;;;;;;4915093;29;20674;-74
2021/10/27 12:55:20;;;;;;;1.00;0.50;;;17.30;99.90;;;;;;4914637;29;20308;-75
2021/10/27 12:58:04;;;;;;;1.73;0.87;;;17.30;99.90;;;;;;4915752;29;20283;-78
2021/10/27 13:00:47;;;;;;;3.07;1.20;;;17.40;99.90;;;;;;4915762;29;20229;-74
2021/10/27 13:03:39;;;;;;;1.93;1.07;;;17.30;99.90;;;;;;4915944;29;20237;-73
2021/10/27 13:06:15;;;;;;;2.33;1.40;;;17.10;99.90;;;;;;4915978;29;20619;-74
2021/10/27 13:08:57;;;;;;;2.70;1.40;;;17.10;99.90;;;;;;4915344;29;20647;-75
2021/10/27 13:14:37;;;;;;;4.20;1.10;;;17.20;99.90;;;;;;4910323;29;20210;-74
2021/10/27 13:22:39;;;;;;;1.50;0.80;;;17.00;99.90;;;;;;4903601;29;20689;-73
2021/10/27 13:30:47;;;;;;;3.13;0.70;;;16.90;99.90;;;;;;4915359;29;20308;-74
2021/10/27 13:33:15;;;;;;;3.73;1.23;;;16.90;99.90;;;;;;4915568;29;20251;-74
2021/10/27 13:35:42;;;;;;;1.13;0.70;;;16.90;99.90;;;;;;4915587;29;20304;-73
2021/10/27 13:38:10;;;;;;;1.80;1.20;;;16.90;99.90;;;;;;4915798;29;20244;-71
2021/10/27 13:40:41;;;;;;;2.53;0.90;;;16.90;99.90;;;;;;4915285;29;20312;-73
2021/10/27 13:43:11;;;;;;;1.70;0.80;;;17.00;99.90;;;;;;4902704;29;20210;-72
2021/10/27 13:45:46;;;;;;;1.10;0.63;;;17.00;99.90;;;;;;4896468;29;20206;-72
2021/10/27 13:48:17;;;;;;;1.60;0.73;;;17.00;99.90;;;;;;4896713;29;20754;-72
2021/10/27 13:59:13;;;;;;;0.97;0.77;;;16.80;99.90;;;;;;4915448;29;20214;-73
2021/10/27 14:07:16;;;;;;;2.10;1.10;;;16.70;99.90;;;;;;4915212;29;20213;-73
2021/10/27 14:09:48;;;;;;;3.57;1.13;;;16.70;99.90;;;;;;4914886;29;20264;-74
2021/10/27 14:15:04;;;;;;;1.83;1.17;;;16.50;99.90;;;;;;4915237;29;20210;-72
2021/10/27 14:48:19;;;;;;;2.40;1.30;;;16.40;99.90;;;;;;4919634;29;20209;-72
2021/10/27 14:59:19;;;;;;;3.63;1.60;;;16.30;99.90;;;;;;4919169;29;20273;-72
2021/10/27 15:20:56;;;;;;;4.10;1.20;;;16.00;99.90;;;;;;4918919;29;20704;-71
2021/10/27 15:23:32;;;;;;;3.20;1.30;;;16.00;99.90;;;;;;4918903;29;20217;-72
2021/10/27 15:28:50;;;;;;;2.90;1.53;;;15.70;99.90;;;;;;4906727;29;20209;-73
2021/10/27 15:31:27;;;;;;;3.23;1.57;;;15.60;99.90;;;;;;4914981;29;20313;-73
2021/10/27 15:34:20;;;;;;;2.30;1.77;;;15.60;99.90;;;;;;4918656;29;20240;-73
2021/10/27 15:36:56;;;;;;;2.00;1.40;;;15.50;99.90;;;;;;4915912;29;20216;-74
2021/10/27 15:42:24;;;;;;;1.43;1.20;;;15.40;99.90;;;;;;4917367;29;20689;-75
2021/10/27 15:45:07;;;;;;;3.37;1.60;;;15.40;99.90;;;;;;4917164;29;20244;-75
2021/10/27 15:50:40;;;;;;;3.10;1.40;;;15.40;99.90;;;;;;4910967;29;20710;-73
2021/10/27 15:53:08;;;;;;;8.37;1.53;;;15.20;99.90;;;;;;4916692;29;20218;-71
2021/10/27 15:55:37;;;;;;;3.10;1.30;;;15.20;99.90;;;;;;4917703;29;20273;-73
2021/10/27 15:58:04;;;;;;;2.67;1.20;;;15.20;99.90;;;;;;4917894;29;20238;-72
2021/10/27 16:00:31;;;;;;;2.87;1.80;;;15.20;99.90;;;;;;4917438;29;20598;-73
2021/10/27 16:02:58;;;;;;;4.07;1.30;;;15.20;99.90;;;;;;4918129;29;20206;-73
2021/10/27 16:05:26;;;;;;;1.63;1.17;;;15.20;99.90;;;;;;4918116;29;20235;-74
2021/10/27 16:07:54;;;;;;;3.80;1.40;;;15.10;99.90;;;;;;4918318;29;20296;-73
2021/10/27 16:10:22;;;;;;;2.93;1.23;;;15.00;99.90;;;;;;4917733;29;20612;-72
2021/10/27 16:12:51;;;;;;;2.27;1.20;;;14.90;99.90;;;;;;4918329;29;20216;-73
2021/10/27 16:15:24;;;;;;;2.77;1.10;;;14.80;99.90;;;;;;4918089;29;20209;-71
2021/10/27 16:17:52;;;;;;;1.77;1.47;;;14.70;99.90;;;;;;4918269;29;20244;-73
2021/10/27 16:20:19;;;;;;;4.40;1.37;;;14.70;99.90;;;;;;4917600;29;20230;-75
2021/10/27 16:22:46;;;;;;;2.20;1.40;;;14.60;99.90;;;;;;4917988;29;20312;-72
2021/10/27 16:25:13;;;;;;;1.97;1.43;;;14.50;99.90;;;;;;4904727;29;20217;-73
2021/10/27 16:27:40;;;;;;;2.40;1.40;;;14.40;99.90;;;;;;4905499;29;20220;-73
2021/10/27 16:30:09;;;;;;;4.17;1.40;;;14.40;99.90;;;;;;4917630;29;20237;-71
2021/10/27 16:32:36;;;;;;;3.13;1.60;;;14.50;99.90;;;;;;4917933;29;20210;-72
2021/10/27 16:35:04;;;;;;;3.13;1.37;;;14.40;99.90;;;;;;4917529;29;20643;-73
2021/10/27 16:37:31;;;;;;;4.27;1.90;;;14.20;99.90;;;;;;4917802;29;20242;-73
2021/10/27 16:39:58;;;;;;;4.97;1.60;;;14.20;99.90;;;;;;4917471;29;20586;-73
2021/10/27 16:42:26;;;;;;;3.13;1.50;;;14.20;99.90;;;;;;4917502;29;20216;-74
2021/10/27 16:44:53;;;;;;;2.17;1.40;;;14.10;99.90;;;;;;4917397;29;20729;-75
2021/10/27 16:47:21;;;;;;;6.47;2.10;;;14.00;99.90;;;;;;4917733;29;20213;-73
2021/10/27 16:49:48;;;;;;;4.67;1.80;;;14.00;99.90;;;;;;4917594;29;20214;-74
2021/10/27 16:52:15;;;;;;;2.67;1.73;;;14.00;99.90;;;;;;4917447;29;20593;-75
2021/10/27 16:54:42;;;;;;;3.03;1.67;;;14.00;99.90;;;;;;4917191;29;20232;-73
2021/10/27 16:57:09;;;;;;;3.07;1.60;;;14.00;99.90;;;;;;4917504;29;20220;-74
2021/10/27 16:59:36;;;;;;;3.73;2.20;;;13.90;99.90;;;;;;4916465;29;20606;-75
2021/10/27 17:02:03;;;;;;;2.50;1.60;;;14.00;99.90;;;;;;4917472;29;20214;-74
2021/10/27 17:04:31;;;;;;;2.47;1.60;;;14.00;99.90;;;;;;4917254;29;20627;-75
2021/10/27 17:06:58;;;;;;;2.77;1.33;;;13.90;99.90;;;;;;4917153;29;20213;-73
2021/10/27 17:09:25;;;;;;;5.20;1.67;;;13.90;99.90;;;;;;4917342;29;20422;-73
2021/10/27 17:11:53;;;;;;;4.20;1.40;;;13.90;99.90;;;;;;4917274;29;20235;-72
2021/10/27 17:14:20;;;;;;;3.33;1.60;;;13.90;99.90;;;;;;4917695;29;20301;-74
2021/10/27 17:16:47;;;;;;;3.90;1.70;;;14.00;99.90;;;;;;4917059;29;20210;-73
2021/10/27 17:19:14;;;;;;;4.53;1.67;;;14.00;99.90;;;;;;4916667;29;20237;-74
2021/10/27 17:21:43;;;;;;;5.43;1.57;;;13.90;99.90;;;;;;4916806;29;20706;-75
2021/10/27 17:24:14;;;;;;;5.27;1.53;;;13.80;99.90;;;;;;4917212;29;20245;-73
2021/10/27 17:26:42;;;;;;;4.37;1.40;;;13.70;99.90;;;;;;4917310;29;20245;-75
2021/10/27 17:29:09;;;;;;;4.23;1.70;;;13.70;99.90;;;;;;4917057;29;20213;-73
2021/10/27 17:31:36;;;;;;;4.37;1.67;;;13.70;99.90;;;;;;4917020;29;20738;-75
2021/10/27 17:34:02;;;;;;;4.37;1.40;;;13.70;99.90;;;;;;4917041;29;20697;-77
2021/10/27 17:36:29;;;;;;;2.50;1.50;;;13.60;99.90;;;;;;4917054;29;20206;-75
2021/10/27 17:38:58;;;;;;;4.40;1.70;;;13.60;99.90;;;;;;4916987;29;20259;-74
2021/10/27 17:41:27;;;;;;;3.00;1.50;;;13.60;99.90;;;;;;4916667;29;20729;-73
2021/10/27 17:43:55;;;;;;;4.77;1.87;;;13.60;99.90;;;;;;4916766;29;20205;-73
2021/10/27 17:46:24;;;;;;;4.30;2.10;;;13.60;99.90;;;;;;4916552;29;20237;-76
2021/10/27 17:48:53;;;;;;;4.63;2.03;;;13.50;99.90;;;;;;4916901;29;20214;-76
2021/10/27 17:51:22;;;;;;;4.40;1.90;;;13.50;99.90;;;;;;4916895;29;20234;-76
2021/10/27 17:59:10;;;;;;;5.73;2.27;;;13.60;99.90;;;;;;4916680;29;20294;-77
2021/10/27 18:01:37;;;;;;;3.57;2.10;;;13.50;99.90;;;;;;4916641;29;20280;-76
2021/10/27 18:04:05;;;;;;;3.93;2.20;;;13.40;99.90;;;;;;4916701;29;20210;-77
2021/10/27 18:06:34;;;;;;;3.83;2.13;;;13.40;99.90;;;;;;4916937;29;20301;-75
2021/10/27 18:09:00;;;;;;;5.73;2.10;;;13.30;99.90;;;;;;4916684;29;20574;-78
2021/10/27 18:11:30;;;;;;;6.17;2.20;;;13.30;99.90;;;;;;4920285;29;20229;-76
2021/10/27 18:14:01;;;;;;;3.47;1.97;;;13.30;99.90;;;;;;4920659;29;20205;-76
2021/10/27 18:16:33;;;;;;;6.23;2.27;;;13.20;99.90;;;;;;4920545;29;20205;-77
2021/10/27 18:21:55;;;;;;;5.93;2.40;;;13.20;99.90;;;;;;4919924;29;20698;-77
2021/10/27 18:24:34;;;;;;;4.53;2.37;;;13.20;99.90;;;;;;4920096;29;20285;-76
2021/10/27 18:38:03;;;;;;;6.03;2.40;;;13.00;99.90;;;;;;4920044;29;20271;-77
2021/10/27 18:40:34;;;;;;;7.97;2.80;;;13.00;99.90;;;;;;4919555;29;20261;-76
2021/10/27 18:43:09;;;;;;;5.90;2.67;;;12.90;99.90;;;;;;4920044;29;20555;-77
2021/10/27 18:45:38;;;;;;;4.23;2.47;;;12.90;99.90;;;;;;4920082;29;20321;-76
2021/10/27 18:48:06;;;;;;;4.90;2.60;;;12.90;99.90;;;;;;4920199;29;20213;-75
2021/10/27 18:50:40;;;;;;;4.43;2.70;;;12.80;99.90;;;;;;4920042;29;20232;-77
2021/10/27 18:53:17;;;;;;;4.57;2.50;;;12.70;99.90;;;;;;4919846;29;20221;-77
2021/10/27 18:56:00;;;;;;;5.43;3.00;;;12.80;99.90;;;;;;4919877;29;20267;-75
2021/10/27 18:58:31;;;;;;;4.73;3.03;;;12.80;99.90;;;;;;4919754;29;20240;-77
2021/10/27 19:01:08;;;;;;;6.53;2.60;;;12.80;99.90;;;;;;4919569;29;20233;-76
2021/10/27 19:11:53;;;;;;;6.63;2.83;;;12.60;99.90;;;;;;4919633;29;20640;-75
2021/10/27 19:14:30;;;;;;;5.30;2.33;;;12.50;99.90;;;;;;4919706;29;20206;-76
2021/10/27 19:16:57;;;;;;;5.33;2.80;;;12.50;99.90;;;;;;4919742;29;20213;-76
2021/10/27 19:19:25;;;;;;;6.03;2.90;;;12.50;99.90;;;;;;4919261;29;20233;-77
2021/10/27 19:21:51;;;;;;;7.90;2.60;;;12.50;99.90;;;;;;4918349;29;20230;-77
2021/10/27 19:24:27;;;;;;;5.50;2.60;;;12.50;99.90;;;;;;4919056;29;20206;-76
2021/10/27 19:26:57;;;;;;;6.80;2.90;;;12.50;99.90;;;;;;4919497;29;20241;-77
2021/10/27 19:29:28;;;;;;;6.03;2.73;;;12.50;99.90;;;;;;4919265;29;20210;-77
2021/10/27 19:32:13;;;;;;;5.53;2.97;;;12.40;99.90;;;;;;4919203;29;20644;-77
2021/10/27 20:07:49;;;;;;;6.93;3.10;;;12.10;99.90;;;;;;4918149;29;20206;-76
2021/10/27 20:10:37;;;;;;;5.40;2.67;;;12.10;99.90;;;;;;4918185;29;20248;-76
2021/10/27 20:16:00;;;;;;;7.30;2.77;;;12.10;99.90;;;;;;4918444;29;20201;-78
2021/10/27 20:49:04;;;;;;;8.27;2.83;;;12.00;99.90;;;;;;4917921;29;20573;-76
2021/10/27 20:51:36;;;;;;;8.83;2.70;;;12.10;99.90;;;;;;4918068;29;20229;-76
2021/10/27 20:54:04;;;;;;;6.10;2.80;;;12.10;99.90;;;;;;4917287;29;20228;-75
2021/10/27 20:56:32;;;;;;;6.47;2.40;;;12.10;99.90;;;;;;4916579;29;20704;-74
2021/10/27 20:59:18;;;;;;;3.90;2.20;;;12.10;99.90;;;;;;4917322;29;20337;-73
2021/10/27 21:01:55;;;;;;;7.03;2.70;;;12.10;99.90;;;;;;4916942;29;20236;-76
2021/10/27 21:04:31;;;;;;;6.63;2.90;;;12.10;99.90;;;;;;4916605;29;20695;-75
